createdAt,value
2019-02-11T00:01:57.975Z,0.97
2019-02-11T00:04:46.792Z,0.40
2019-02-11T00:07:35.628Z,0.70
2019-02-11T00:10:24.467Z,0.60
2019-02-11T00:13:13.299Z,0.73
2019-02-11T00:16:02.253Z,0.70
2019-02-11T00:18:51.083Z,1.03
2019-02-11T00:21:39.995Z,0.93
2019-02-11T00:24:28.893Z,1.00
2019-02-11T00:27:17.741Z,1.13
2019-02-11T00:30:27.549Z,1.60
2019-02-11T00:33:16.351Z,1.00
2019-02-11T00:36:05.264Z,2.03
2019-02-11T00:38:54.070Z,1.00
2019-02-11T00:41:42.913Z,0.90
2019-02-11T00:44:31.801Z,0.97
2019-02-11T00:47:20.615Z,0.80
2019-02-11T00:50:30.391Z,1.47
2019-02-11T00:53:19.279Z,0.90
2019-02-11T00:56:01.079Z,1.17
2019-02-11T00:58:30.584Z,1.30
2019-02-11T01:01:19.379Z,1.67
2019-02-11T01:04:08.236Z,1.60
2019-02-11T01:06:57.022Z,1.60
2019-02-11T01:09:45.859Z,1.57
2019-02-11T01:12:34.659Z,1.40
2019-02-11T01:15:23.495Z,1.50
2019-02-11T01:18:12.287Z,1.33
2019-02-11T01:21:01.113Z,1.30
2019-02-11T01:23:49.943Z,1.10
2019-02-11T01:26:38.806Z,1.00
2019-02-11T01:29:27.629Z,1.03
2019-02-11T01:32:16.514Z,0.80
2019-02-11T01:35:26.250Z,1.03
2019-02-11T01:37:55.697Z,0.90
2019-02-11T01:40:44.621Z,1.03
2019-02-11T01:43:36.039Z,0.73
2019-02-11T01:46:23.987Z,1.17
2019-02-11T01:49:12.880Z,1.17
2019-02-11T01:52:01.710Z,0.50
2019-02-11T01:54:43.859Z,0.53
2019-02-11T01:57:32.718Z,0.50
2019-02-11T02:00:14.605Z,0.70
2019-02-11T02:03:03.420Z,1.23
2019-02-11T02:05:52.226Z,0.60
2019-02-11T02:08:53.023Z,1.00
2019-02-11T02:11:31.627Z,1.47
2019-02-11T02:14:20.455Z,1.13
2019-02-11T02:17:09.265Z,1.13
2019-02-11T02:19:49.294Z,3.63
2019-02-11T02:22:38.123Z,2.73
2019-02-11T02:25:26.954Z,1.07
2019-02-11T02:28:15.780Z,2.13
2019-02-11T02:31:04.587Z,1.20
2019-02-11T02:33:53.403Z,1.63
2019-02-11T02:36:42.214Z,1.23
2019-02-11T02:39:31.062Z,2.30
2019-02-11T02:42:19.899Z,1.57
2019-02-11T02:48:24.899Z,3.13
2019-02-11T02:51:13.744Z,2.40
2019-02-11T02:53:55.404Z,5.20
2019-02-11T02:56:44.181Z,2.73
2019-02-11T02:59:33.082Z,2.03
2019-02-11T03:02:21.925Z,2.90
2019-02-11T03:05:10.823Z,2.40
2019-02-11T03:07:59.704Z,3.60
2019-02-11T03:10:48.476Z,2.43
2019-02-11T03:13:37.333Z,2.67
2019-02-11T03:16:45.478Z,3.07
2019-02-11T03:19:34.379Z,2.87
2019-02-11T03:22:23.187Z,1.90
2019-02-11T03:25:12.255Z,2.87
2019-02-11T03:28:01.052Z,3.57
2019-02-11T03:30:49.876Z,2.00
2019-02-11T03:33:31.649Z,4.23
2019-02-11T03:36:20.478Z,2.17
2019-02-11T03:39:09.271Z,3.47
2019-02-11T03:41:58.114Z,4.03
2019-02-11T03:45:05.985Z,3.70
2019-02-11T03:47:54.791Z,2.87
2019-02-11T03:50:43.708Z,2.73
2019-02-11T03:53:32.501Z,3.67
2019-02-11T03:56:13.896Z,2.10
2019-02-11T04:02:11.831Z,2.30
2019-02-11T04:05:00.689Z,2.83
2019-02-11T04:07:49.502Z,4.23
2019-02-11T04:10:38.331Z,3.70
2019-02-11T04:13:27.159Z,4.63
2019-02-11T04:16:15.996Z,4.30
2019-02-11T04:19:04.918Z,6.60
2019-02-11T04:22:13.024Z,5.43
2019-02-11T04:25:01.875Z,8.40
2019-02-11T04:27:50.668Z,5.77
2019-02-11T04:30:39.515Z,7.03
2019-02-11T04:33:28.344Z,7.37
2019-02-11T04:36:17.229Z,10.57
2019-02-11T04:42:05.800Z,7.70
2019-02-11T04:44:54.633Z,7.80
2019-02-11T04:47:43.554Z,7.47
2019-02-11T04:50:32.378Z,6.43
2019-02-11T04:53:21.182Z,7.50
2019-02-11T04:56:02.814Z,6.50
2019-02-11T04:58:51.640Z,7.17
2019-02-11T05:01:40.488Z,6.90
2019-02-11T05:04:29.309Z,8.60
2019-02-11T05:07:18.101Z,5.37
2019-02-11T05:10:27.929Z,8.27
2019-02-11T05:13:16.841Z,7.70
2019-02-11T05:16:05.674Z,7.30
2019-02-11T05:18:54.509Z,10.37
2019-02-11T05:21:43.323Z,6.30
2019-02-11T05:24:32.168Z,8.73
2019-02-11T05:27:21.023Z,6.50
2019-02-11T05:30:30.730Z,6.20
2019-02-11T05:33:19.624Z,8.03
2019-02-11T05:36:11.443Z,7.07
2019-02-11T05:39:00.291Z,6.10
2019-02-11T05:45:24.802Z,8.27
2019-02-11T05:48:13.643Z,7.67
2019-02-11T05:51:02.451Z,7.67
2019-02-11T05:53:51.271Z,4.50
2019-02-11T05:56:40.067Z,8.83
2019-02-11T05:59:28.999Z,6.27
2019-02-11T06:05:14.071Z,6.47
2019-02-11T06:08:02.890Z,4.67
2019-02-11T06:10:51.755Z,6.87
2019-02-11T06:13:40.578Z,8.10
2019-02-11T06:16:29.420Z,8.50
2019-02-11T06:19:18.206Z,9.63
2019-02-11T06:22:07.104Z,5.60
2019-02-11T06:25:16.817Z,7.10
2019-02-11T06:28:05.653Z,6.03
2019-02-11T06:30:54.533Z,6.80
2019-02-11T06:33:24.051Z,6.57
2019-02-11T06:36:13.031Z,10.20
2019-02-11T06:39:01.862Z,4.97
2019-02-11T06:41:31.312Z,4.80
2019-02-11T06:44:20.158Z,6.50
2019-02-11T06:47:08.969Z,5.30
2019-02-11T06:49:57.813Z,5.47
2019-02-11T06:52:46.600Z,5.97
2019-02-11T06:55:28.605Z,6.43
2019-02-11T06:58:17.449Z,5.00
2019-02-11T07:01:06.435Z,7.53
2019-02-11T07:03:55.263Z,7.97
2019-02-11T07:06:44.096Z,6.77
2019-02-11T07:09:32.925Z,7.20
2019-02-11T07:12:22.021Z,7.00
2019-02-11T07:15:30.169Z,7.10
2019-02-11T07:18:18.984Z,8.23
2019-02-11T07:21:07.883Z,8.20
2019-02-11T07:23:56.746Z,8.73
2019-02-11T07:26:45.842Z,10.07
2019-02-11T07:29:34.642Z,7.73
2019-02-11T07:32:04.259Z,8.83
2019-02-11T07:35:12.421Z,7.20
2019-02-11T07:38:01.404Z,6.57
2019-02-11T07:40:50.493Z,7.07
2019-02-11T07:49:31.394Z,9.07
2019-02-11T07:52:26.620Z,8.10
2019-02-11T07:55:10.808Z,8.37
2019-02-11T07:57:50.721Z,8.60
2019-02-11T08:00:39.587Z,8.23
2019-02-11T08:03:28.412Z,6.30
2019-02-11T08:06:17.211Z,6.90
2019-02-11T08:12:01.857Z,7.93
2019-02-11T08:14:50.765Z,6.20
2019-02-11T08:17:39.638Z,8.03
2019-02-11T08:20:28.475Z,6.97
2019-02-11T08:23:17.332Z,9.03
2019-02-11T08:26:06.326Z,10.00
2019-02-11T08:28:55.145Z,7.83
2019-02-11T08:34:51.722Z,6.70
2019-02-11T08:37:40.556Z,8.57
2019-02-11T08:40:29.442Z,7.07
2019-02-11T08:46:06.708Z,7.30
2019-02-11T08:48:55.517Z,10.63
2019-02-11T08:52:03.772Z,11.63
2019-02-11T08:54:52.580Z,8.13
2019-02-11T08:57:34.228Z,8.37
2019-02-11T09:00:23.103Z,9.77
2019-02-11T09:03:12.304Z,8.53
2019-02-11T09:06:00.775Z,7.37
2019-02-11T09:08:49.653Z,8.43
2019-02-11T09:11:38.527Z,8.53
2019-02-11T09:14:27.402Z,11.57
2019-02-11T09:17:16.259Z,10.07
2019-02-11T09:20:26.030Z,8.97
2019-02-11T09:22:55.491Z,8.70
2019-02-11T09:25:44.396Z,9.63
2019-02-11T09:28:33.207Z,7.63
2019-02-11T09:31:22.127Z,8.03
2019-02-11T09:34:10.618Z,6.30
2019-02-11T09:36:52.632Z,5.67
2019-02-11T09:39:41.475Z,7.23
2019-02-11T09:42:30.374Z,6.37
2019-02-11T09:45:38.783Z,7.63
2019-02-11T09:48:08.345Z,6.83
2019-02-11T09:50:57.286Z,5.37
2019-02-11T09:53:46.196Z,7.83
2019-02-11T09:56:35.037Z,7.10
2019-02-11T09:59:23.852Z,6.60
2019-02-11T10:02:04.505Z,7.00
2019-02-11T10:04:53.341Z,3.93
2019-02-11T10:07:42.194Z,9.53
2019-02-11T10:10:31.165Z,6.97
2019-02-11T10:13:20.128Z,6.60
2019-02-11T10:16:12.465Z,8.67
2019-02-11T10:18:59.587Z,7.67
2019-02-11T10:21:48.497Z,7.00
2019-02-11T10:24:37.365Z,6.40
2019-02-11T10:27:26.175Z,7.67
2019-02-11T10:30:36.505Z,5.10
2019-02-11T10:33:25.404Z,7.33
2019-02-11T10:36:14.310Z,8.73
2019-02-11T10:41:59.348Z,6.43
2019-02-11T10:44:48.127Z,7.17
2019-02-11T10:47:37.091Z,6.77
2019-02-11T10:50:26.014Z,6.90
2019-02-11T10:53:14.921Z,6.37
2019-02-11T10:56:04.027Z,6.07
2019-02-11T10:58:52.830Z,11.63
2019-02-11T11:01:41.670Z,5.83
2019-02-11T11:04:32.030Z,4.47
2019-02-11T11:07:20.826Z,6.47
2019-02-11T11:10:30.564Z,5.63
2019-02-11T11:13:19.535Z,9.77
2019-02-11T11:16:08.425Z,9.17
2019-02-11T11:18:57.286Z,6.07
2019-02-11T11:21:46.302Z,5.50
2019-02-11T11:24:35.403Z,6.30
2019-02-11T11:27:24.399Z,5.63
2019-02-11T11:30:34.171Z,7.00
2019-02-11T11:33:03.790Z,6.80
2019-02-11T11:35:52.797Z,6.37
2019-02-11T11:38:35.100Z,6.13
2019-02-11T11:41:44.728Z,5.67
2019-02-11T11:44:33.597Z,5.17
2019-02-11T11:47:22.505Z,4.97
2019-02-11T11:50:12.095Z,5.53
2019-02-11T11:53:00.904Z,6.37
2019-02-11T11:55:30.486Z,5.60
2019-02-11T11:58:19.287Z,6.07
2019-02-11T12:01:48.077Z,7.17
2019-02-11T12:04:36.989Z,5.17
2019-02-11T12:07:25.797Z,6.30
2019-02-11T12:10:14.756Z,4.87
2019-02-11T12:13:21.643Z,6.37
2019-02-11T12:15:34.981Z,4.70
2019-02-11T12:18:23.823Z,5.67
2019-02-11T12:21:24.831Z,4.00
2019-02-11T12:24:03.366Z,7.07
2019-02-11T12:26:52.271Z,4.83
2019-02-11T12:29:41.168Z,3.63
2019-02-11T12:32:30.047Z,4.77
2019-02-11T12:34:59.532Z,6.10
2019-02-11T12:37:48.378Z,5.37
2019-02-11T12:40:30.189Z,4.33
2019-02-11T12:43:19.034Z,7.60
2019-02-11T12:46:07.857Z,3.90
2019-02-11T12:48:37.478Z,3.37
2019-02-11T12:51:26.281Z,5.97
2019-02-11T12:54:15.133Z,3.30
2019-02-11T12:57:03.976Z,3.53
2019-02-11T12:59:52.856Z,3.70
2019-02-11T13:02:34.682Z,2.53
2019-02-11T13:05:42.605Z,2.37
2019-02-11T13:08:14.150Z,3.43
2019-02-11T13:11:03.073Z,2.87
2019-02-11T13:13:51.881Z,3.13
2019-02-11T13:16:40.719Z,2.17
2019-02-11T13:22:37.356Z,1.37
2019-02-11T13:25:26.190Z,3.37
2019-02-11T13:28:15.155Z,2.87
2019-02-11T13:31:24.894Z,2.23
2019-02-11T13:34:13.823Z,5.50
2019-02-11T13:37:02.680Z,5.33
2019-02-11T13:39:51.579Z,8.63
2019-02-11T13:42:40.510Z,3.40
2019-02-11T13:45:29.369Z,4.77
2019-02-11T13:48:18.350Z,6.90
2019-02-11T13:51:07.150Z,4.87
2019-02-11T13:53:56.082Z,4.73
2019-02-11T13:56:44.883Z,4.40
2019-02-11T13:59:24.066Z,4.30
2019-02-11T14:02:13.000Z,4.73
2019-02-11T14:05:01.869Z,2.83
2019-02-11T14:07:50.822Z,3.23
2019-02-11T14:10:39.809Z,3.90
2019-02-11T14:13:28.628Z,1.73
2019-02-11T14:16:17.550Z,2.83
2019-02-11T14:19:06.381Z,2.93
2019-02-11T14:21:35.950Z,4.87
2019-02-11T14:24:24.755Z,4.00
2019-02-11T14:27:13.665Z,4.47
2019-02-11T14:30:02.484Z,4.90
2019-02-11T14:32:51.637Z,3.33
2019-02-11T14:35:40.617Z,2.80
2019-02-11T14:38:29.465Z,5.70
2019-02-11T14:40:59.003Z,4.57
2019-02-11T14:43:47.919Z,6.90
2019-02-11T14:46:36.836Z,6.30
2019-02-11T14:49:25.700Z,3.47
2019-02-11T14:52:14.495Z,2.20
2019-02-11T14:55:03.597Z,3.03
2019-02-11T14:57:52.131Z,3.40
2019-02-11T15:00:41.040Z,2.13
2019-02-11T15:03:10.775Z,1.10
2019-02-11T15:05:59.655Z,6.47
2019-02-11T15:08:48.523Z,3.27
2019-02-11T15:11:37.349Z,0.77
2019-02-11T15:14:26.254Z,3.30
2019-02-11T15:17:15.215Z,3.53
2019-02-11T15:20:24.912Z,1.63
2019-02-11T15:23:13.719Z,4.33
2019-02-11T15:26:02.545Z,2.50
2019-02-11T15:29:34.176Z,4.30
2019-02-11T15:32:23.001Z,1.63
2019-02-11T15:35:11.924Z,2.30
2019-02-11T15:37:41.402Z,6.20
2019-02-11T15:43:26.139Z,5.63
2019-02-11T15:46:26.959Z,2.27
2019-02-11T15:49:05.584Z,2.93
2019-02-11T15:51:54.484Z,4.20
2019-02-11T15:54:43.286Z,4.43
2019-02-11T15:57:32.104Z,4.93
2019-02-11T16:00:14.935Z,5.63
2019-02-11T16:03:03.791Z,3.20
2019-02-11T16:05:33.298Z,4.70
2019-02-11T16:08:22.160Z,5.60
2019-02-11T16:11:11.048Z,6.37
2019-02-11T16:13:59.925Z,4.03
2019-02-11T16:16:48.796Z,4.13
2019-02-11T16:19:37.661Z,4.73
2019-02-11T16:22:26.582Z,4.90
2019-02-11T16:28:44.147Z,6.60
2019-02-11T16:31:33.068Z,4.83
2019-02-11T16:34:02.595Z,20.73
2019-02-11T16:36:51.462Z,18.57
2019-02-11T16:39:40.312Z,20.23
2019-02-11T16:42:29.144Z,17.87
2019-02-11T16:45:18.100Z,9.70
2019-02-11T16:48:07.163Z,7.67
2019-02-11T16:50:56.055Z,5.57
2019-02-11T16:53:44.928Z,4.67
2019-02-11T16:56:33.748Z,6.57
2019-02-11T16:59:22.702Z,4.33
2019-02-11T17:02:11.638Z,5.93
2019-02-11T17:05:00.480Z,4.97
2019-02-11T17:07:49.407Z,5.13
2019-02-11T17:10:38.274Z,5.90
2019-02-11T17:13:27.135Z,7.07
2019-02-11T17:16:15.942Z,5.23
2019-02-11T17:19:09.337Z,8.80
2019-02-11T17:21:55.176Z,5.83
2019-02-11T17:24:44.025Z,5.60
2019-02-11T17:27:32.907Z,7.50
2019-02-11T17:30:40.790Z,5.47
2019-02-11T17:33:29.675Z,3.83
2019-02-11T17:35:59.166Z,4.27
2019-02-11T17:38:48.033Z,6.27
2019-02-11T17:41:36.919Z,4.97
2019-02-11T17:44:25.743Z,6.07
2019-02-11T17:47:14.649Z,5.03
2019-02-11T17:50:24.259Z,5.37
2019-02-11T17:53:34.072Z,3.97
2019-02-11T17:56:23.100Z,2.53
2019-02-11T17:59:11.973Z,7.70
2019-02-11T18:01:53.578Z,6.13
2019-02-11T18:04:42.439Z,7.43
2019-02-11T18:07:31.355Z,3.63
2019-02-11T18:10:41.113Z,5.97
2019-02-11T18:13:30.020Z,5.87
2019-02-11T18:16:18.535Z,6.43
2019-02-11T18:19:07.520Z,4.60
2019-02-11T18:21:56.378Z,7.73
2019-02-11T18:24:45.338Z,6.27
2019-02-11T18:27:55.126Z,4.40
2019-02-11T18:30:24.665Z,4.63
2019-02-11T18:33:13.650Z,3.90
2019-02-11T18:36:02.451Z,8.23
2019-02-11T18:38:51.437Z,3.67
2019-02-11T18:41:40.293Z,3.50
2019-02-11T18:44:29.202Z,3.73
2019-02-11T18:47:18.104Z,5.03
2019-02-11T18:50:27.864Z,4.97
2019-02-11T18:53:16.819Z,3.20
2019-02-11T18:56:05.689Z,3.27
2019-02-11T18:58:55.611Z,7.97
2019-02-11T19:04:28.831Z,4.30
2019-02-11T19:07:17.724Z,3.83
2019-02-11T19:10:27.676Z,4.60
2019-02-11T19:13:16.708Z,7.33
2019-02-11T19:16:05.637Z,5.50
2019-02-11T19:18:54.530Z,1.53
2019-02-11T19:21:43.379Z,5.20
2019-02-11T19:24:32.391Z,11.20
2019-02-11T19:27:21.251Z,4.47
2019-02-11T19:30:29.486Z,6.10
2019-02-11T19:33:18.355Z,4.73
2019-02-11T19:36:07.248Z,3.37
2019-02-11T19:38:56.165Z,3.47
2019-02-11T19:41:45.130Z,3.10
2019-02-11T19:44:34.034Z,4.23
2019-02-11T19:47:03.553Z,4.13
2019-02-11T19:49:52.455Z,2.43
2019-02-11T19:52:41.475Z,4.30
2019-02-11T19:55:30.277Z,3.63
2019-02-11T19:58:19.297Z,3.67
2019-02-11T20:01:08.251Z,3.47
2019-02-11T20:03:57.197Z,5.03
2019-02-11T20:06:46.036Z,4.00
2019-02-11T20:09:34.950Z,3.13
2019-02-11T20:12:23.767Z,3.27
2019-02-11T20:14:53.363Z,2.47
2019-02-11T20:17:42.366Z,3.73
2019-02-11T20:20:31.303Z,3.87
2019-02-11T20:23:20.130Z,6.10
2019-02-11T20:26:08.973Z,4.13
2019-02-11T20:28:57.860Z,2.23
2019-02-11T20:31:27.403Z,4.73
2019-02-11T20:34:16.307Z,2.37
2019-02-11T20:37:05.246Z,2.73
2019-02-11T20:39:54.244Z,4.00
2019-02-11T20:42:43.163Z,4.43
2019-02-11T20:45:32.036Z,3.07
2019-02-11T20:48:20.908Z,4.40
2019-02-11T20:51:09.766Z,4.07
2019-02-11T20:56:53.183Z,4.53
2019-02-11T20:59:42.031Z,2.50
2019-02-11T21:02:23.803Z,2.33
2019-02-11T21:05:12.774Z,1.80
2019-02-11T21:08:01.656Z,4.20
2019-02-11T21:10:50.461Z,5.07
2019-02-11T21:13:58.787Z,5.13
2019-02-11T21:19:55.525Z,3.70
2019-02-11T21:22:44.318Z,3.03
2019-02-11T21:25:33.242Z,2.40
2019-02-11T21:28:22.209Z,1.70
2019-02-11T21:31:11.015Z,4.30
2019-02-11T21:33:59.902Z,4.63
2019-02-11T21:36:48.815Z,3.67
2019-02-11T21:39:37.685Z,3.50
2019-02-11T21:42:26.612Z,3.73
2019-02-11T21:45:15.499Z,3.43
2019-02-11T21:48:04.437Z,3.17
2019-02-11T21:50:45.927Z,3.83
2019-02-11T21:53:15.471Z,3.77
2019-02-11T21:56:04.391Z,3.90
2019-02-11T21:58:53.216Z,4.63
2019-02-11T22:01:34.491Z,2.77
2019-02-11T22:04:23.336Z,3.43
2019-02-11T22:07:12.251Z,3.80
2019-02-11T22:10:01.039Z,5.57
2019-02-11T22:12:49.979Z,6.00
2019-02-11T22:15:19.599Z,5.83
2019-02-11T22:18:08.534Z,6.27
2019-02-11T22:20:57.495Z,5.60
2019-02-11T22:23:46.435Z,6.17
2019-02-11T22:26:35.250Z,4.90
2019-02-11T22:29:24.122Z,4.90
2019-02-11T22:32:13.040Z,10.00
2019-02-11T22:35:01.898Z,9.10
2019-02-11T22:37:51.402Z,6.73
2019-02-11T22:40:40.247Z,7.47
2019-02-11T22:43:21.740Z,5.97
2019-02-11T22:46:10.681Z,7.77
2019-02-11T22:48:59.463Z,9.03
2019-02-11T22:51:48.325Z,6.17
2019-02-11T22:54:37.135Z,5.23
2019-02-11T22:57:25.984Z,7.23
2019-02-11T23:03:37.240Z,4.30
2019-02-11T23:06:26.083Z,5.93
2019-02-11T23:09:14.944Z,4.67
2019-02-11T23:12:03.933Z,6.47
2019-02-11T23:14:52.770Z,6.27
2019-02-11T23:17:41.603Z,6.10
2019-02-11T23:20:30.515Z,9.43
2019-02-11T23:23:19.369Z,6.57
2019-02-11T23:26:08.178Z,7.57
2019-02-11T23:28:57.023Z,5.93
2019-02-11T23:31:45.948Z,4.83
2019-02-11T23:34:34.742Z,4.87
2019-02-11T23:37:23.708Z,4.73
2019-02-11T23:40:12.537Z,6.37
2019-02-11T23:43:01.373Z,6.90
2019-02-11T23:45:50.177Z,4.97
2019-02-11T23:48:39.051Z,4.97
2019-02-11T23:51:27.901Z,5.13
2019-02-11T23:57:31.864Z,4.77
